createdAt,value
2023-04-07T00:14:35.015Z,100410.98
2023-04-07T00:31:33.691Z,100410.18
2023-04-07T00:34:25.005Z,100404.98
2023-04-07T00:37:38.946Z,100401.59
2023-04-07T00:40:40.812Z,100403.96
2023-04-07T00:43:39.312Z,100407.17
2023-04-07T00:46:49.406Z,100411.25
2023-04-07T00:50:22.186Z,100406.92
2023-04-07T00:53:29.031Z,100410.05
2023-04-07T00:56:52.956Z,100413.47
2023-04-07T01:00:03.555Z,100413.78
2023-04-07T01:03:50.417Z,100412.52
2023-04-07T01:07:15.615Z,100411.02
2023-04-07T01:10:36.615Z,100414.83
2023-04-07T01:13:57.810Z,100414.63
2023-04-07T01:17:05.349Z,100409.66
2023-04-07T01:21:23.655Z,100403.80
2023-04-07T01:25:20.565Z,100399.99
2023-04-07T01:29:03.259Z,100400.47
2023-04-07T01:32:10.358Z,100397.50
2023-04-07T01:35:50.166Z,100393.48
2023-04-07T01:39:09.767Z,100393.09
2023-04-07T01:42:55.678Z,100388.87
2023-04-07T01:46:07.871Z,100391.98
2023-04-07T01:49:28.159Z,100390.21
2023-04-07T01:52:38.572Z,100390.09
2023-04-07T01:56:38.240Z,100389.63
2023-04-07T01:59:37.464Z,100386.34
2023-04-07T02:02:10.557Z,100387.37
2023-04-07T02:05:40.054Z,100383.52
2023-04-07T02:08:45.793Z,100385.39
2023-04-07T02:15:43.795Z,100383.34
2023-04-07T02:18:53.333Z,100384.05
2023-04-07T02:22:37.748Z,100383.46
2023-04-07T02:25:39.671Z,100381.88
2023-04-07T02:28:21.843Z,100382.27
2023-04-07T02:31:57.013Z,100387.10
2023-04-07T02:34:38.849Z,100383.09
2023-04-07T02:37:11.670Z,100384.90
2023-04-07T02:39:46.909Z,100390.55
2023-04-07T02:42:16.381Z,100391.48
2023-04-07T02:44:48.372Z,100391.50
2023-04-07T02:47:18.232Z,100393.48
2023-04-07T02:49:47.811Z,100394.11
2023-04-07T02:52:18.649Z,100395.27
2023-04-07T02:55:04.100Z,100400.75
2023-04-07T02:57:40.191Z,100395.90
2023-04-07T03:00:17.167Z,100397.60
2023-04-07T03:02:58.885Z,100399.39
2023-04-07T03:05:41.753Z,100403.13
2023-04-07T03:08:32.704Z,100399.05
2023-04-07T03:11:05.158Z,100397.90
2023-04-07T03:13:43.053Z,100398.98
2023-04-07T03:16:23.708Z,100399.17
2023-04-07T03:18:59.867Z,100402.30
2023-04-07T03:21:47.577Z,100400.21
2023-04-07T03:24:18.266Z,100404.16
2023-04-07T03:26:48.430Z,100401.20
2023-04-07T03:29:19.741Z,100407.23
2023-04-07T03:31:49.714Z,100409.63
2023-04-07T03:34:19.441Z,100412.13
2023-04-07T03:36:48.639Z,100416.36
2023-04-07T03:39:18.514Z,100416.29
2023-04-07T03:41:48.125Z,100422.27
2023-04-07T03:44:18.056Z,100423.42
2023-04-07T03:46:49.995Z,100426.52
2023-04-07T03:49:20.552Z,100435.05
2023-04-07T03:51:50.418Z,100435.57
2023-04-07T03:54:22.234Z,100439.05
2023-04-07T03:56:52.342Z,100439.79
2023-04-07T03:59:22.503Z,100444.23
2023-04-07T04:01:57.074Z,100445.29
2023-04-07T04:04:28.891Z,100448.32
2023-04-07T04:06:58.842Z,100452.86
2023-04-07T04:09:28.048Z,100451.00
2023-04-07T04:11:56.562Z,100454.73
2023-04-07T04:14:26.990Z,100460.23
2023-04-07T04:16:56.178Z,100464.93
2023-04-07T04:19:25.716Z,100462.72
2023-04-07T04:21:55.617Z,100471.02
2023-04-07T04:24:25.126Z,100472.28
2023-04-07T04:26:54.224Z,100473.30
2023-04-07T04:29:22.484Z,100474.54
2023-04-07T04:31:51.858Z,100479.44
2023-04-07T04:34:22.524Z,100483.97
2023-04-07T04:36:53.171Z,100483.23
2023-04-07T04:39:23.554Z,100491.19
2023-04-07T04:41:56.943Z,100492.48
2023-04-07T04:44:26.464Z,100497.57
2023-04-07T04:46:55.771Z,100502.30
2023-04-07T04:49:25.574Z,100506.14
2023-04-07T04:51:55.021Z,100503.27
2023-04-07T04:54:28.883Z,100503.23
2023-04-07T04:56:58.719Z,100507.97
2023-04-07T04:59:28.135Z,100509.42
2023-04-07T05:01:57.969Z,100516.27
2023-04-07T05:04:27.886Z,100519.27
2023-04-07T05:06:58.415Z,100524.08
2023-04-07T05:09:27.911Z,100532.39
2023-04-07T05:11:57.842Z,100532.51
2023-04-07T05:14:34.321Z,100536.43
2023-04-07T05:17:05.272Z,100542.24
2023-04-07T05:19:34.113Z,100543.76
2023-04-07T05:22:06.544Z,100544.66
2023-04-07T05:24:37.558Z,100547.35
2023-04-07T05:27:06.759Z,100554.13
2023-04-07T05:29:35.807Z,100551.41
2023-04-07T05:32:06.205Z,100551.60
2023-04-07T05:34:36.161Z,100553.34
2023-04-07T05:37:05.906Z,100558.55
2023-04-07T05:39:35.368Z,100555.69
2023-04-07T05:42:05.141Z,100557.08
2023-04-07T05:44:34.692Z,100557.11
2023-04-07T05:47:08.494Z,100558.41
2023-04-07T05:49:45.211Z,100560.09
2023-04-07T05:52:17.022Z,100557.45
2023-04-07T05:54:48.488Z,100561.06
2023-04-07T05:57:17.673Z,100558.63
2023-04-07T05:59:45.937Z,100559.48
2023-04-07T06:02:16.055Z,100564.59
2023-04-07T06:04:46.870Z,100577.42
2023-04-07T06:07:17.219Z,100577.45
2023-04-07T06:09:47.261Z,100580.72
2023-04-07T06:12:16.888Z,100584.79
2023-04-07T06:14:52.996Z,100581.15
2023-04-07T06:17:22.957Z,100582.01
2023-04-07T06:19:52.145Z,100582.70
2023-04-07T06:22:22.206Z,100584.61
2023-04-07T06:24:52.462Z,100588.89
2023-04-07T06:27:22.447Z,100587.39
2023-04-07T06:29:51.732Z,100584.70
2023-04-07T06:32:22.465Z,100582.84
2023-04-07T06:34:51.117Z,100592.46
2023-04-07T06:37:20.582Z,100593.91
2023-04-07T06:39:50.342Z,100593.11
2023-04-07T06:42:19.471Z,100599.12
2023-04-07T06:44:47.631Z,100606.67
2023-04-07T06:47:17.244Z,100609.98
2023-04-07T06:49:48.516Z,100615.38
2023-04-07T06:52:18.106Z,100622.46
2023-04-07T06:54:48.002Z,100618.98
2023-04-07T06:57:17.394Z,100619.30
2023-04-07T06:59:47.187Z,100619.22
2023-04-07T07:02:17.310Z,100618.05
2023-04-07T07:04:47.438Z,100619.27
2023-04-07T07:07:17.206Z,100619.65
2023-04-07T07:09:47.370Z,100621.42
2023-04-07T07:12:17.645Z,100617.97
2023-04-07T07:14:55.088Z,100623.66
2023-04-07T07:17:24.495Z,100624.34
2023-04-07T07:19:55.031Z,100626.77
2023-04-07T07:22:24.171Z,100630.77
2023-04-07T07:24:52.497Z,100633.58
2023-04-07T07:27:21.820Z,100641.73
2023-04-07T07:29:51.160Z,100642.81
2023-04-07T07:32:20.699Z,100652.73
2023-04-07T07:34:50.316Z,100656.52
2023-04-07T07:37:19.386Z,100657.21
2023-04-07T07:39:48.282Z,100660.52
2023-04-07T07:42:17.992Z,100658.64
2023-04-07T07:44:50.579Z,100655.06
2023-04-07T07:47:20.329Z,100658.17
2023-04-07T07:49:49.864Z,100657.23
2023-04-07T07:52:20.223Z,100661.86
2023-04-07T07:54:51.276Z,100671.42
2023-04-07T07:57:20.754Z,100673.17
2023-04-07T07:59:50.265Z,100670.16
2023-04-07T08:02:30.163Z,100666.20
2023-04-07T08:05:00.495Z,100665.42
2023-04-07T08:07:30.258Z,100676.13
2023-04-07T08:10:00.458Z,100678.09
2023-04-07T08:12:29.833Z,100673.86
2023-04-07T08:14:59.337Z,100678.80
2023-04-07T08:17:29.127Z,100683.17
2023-04-07T08:19:59.617Z,100683.51
2023-04-07T08:22:28.828Z,100689.02
2023-04-07T08:24:57.048Z,100688.30
2023-04-07T08:27:26.499Z,100691.21
2023-04-07T08:30:01.823Z,100684.98
2023-04-07T08:32:37.191Z,100686.61
2023-04-07T08:35:08.906Z,100687.39
2023-04-07T08:37:40.698Z,100683.03
2023-04-07T08:40:12.044Z,100678.74
2023-04-07T08:42:46.603Z,100680.55
2023-04-07T08:45:19.631Z,100680.77
2023-04-07T08:47:54.136Z,100684.64
2023-04-07T08:50:25.857Z,100687.16
2023-04-07T08:53:00.908Z,100684.45
2023-04-07T08:55:30.566Z,100685.23
2023-04-07T08:58:01.617Z,100679.09
2023-04-07T09:00:32.584Z,100687.30
2023-04-07T09:03:03.056Z,100688.69
2023-04-07T09:05:32.651Z,100693.05
2023-04-07T09:08:03.477Z,100695.52
2023-04-07T09:10:32.815Z,100688.08
2023-04-07T09:13:02.201Z,100690.78
2023-04-07T09:15:32.736Z,100699.39
2023-04-07T09:18:02.486Z,100692.76
2023-04-07T09:20:56.404Z,100697.83
2023-04-07T09:23:31.710Z,100701.36
2023-04-07T09:26:18.234Z,100704.71
2023-04-07T09:28:51.178Z,100707.60
2023-04-07T09:31:21.527Z,100702.05
2023-04-07T09:33:52.732Z,100700.27
2023-04-07T09:36:41.403Z,100704.31
2023-04-07T09:39:11.770Z,100697.20
2023-04-07T09:41:41.528Z,100694.98
2023-04-07T09:44:11.526Z,100701.14
2023-04-07T09:46:51.903Z,100700.85
2023-04-07T09:49:23.681Z,100700.73
2023-04-07T09:52:00.184Z,100704.38
2023-04-07T09:54:38.933Z,100703.14
2023-04-07T09:57:09.390Z,100711.30
2023-04-07T09:59:42.059Z,100707.80
2023-04-07T10:02:12.518Z,100715.27
2023-04-07T10:04:43.525Z,100720.16
2023-04-07T10:07:15.433Z,100721.39
2023-04-07T10:09:45.584Z,100722.61
2023-04-07T10:12:18.898Z,100722.30
2023-04-07T10:14:50.697Z,100728.94
2023-04-07T10:17:22.973Z,100721.11
2023-04-07T10:19:56.039Z,100731.21
2023-04-07T10:22:27.759Z,100742.86
2023-04-07T10:25:06.029Z,100733.06
2023-04-07T10:27:38.989Z,100730.98
2023-04-07T10:30:14.470Z,100731.71
2023-04-07T10:32:48.726Z,100730.02
2023-04-07T10:35:18.709Z,100728.84
2023-04-07T10:38:16.374Z,100726.62
2023-04-07T10:40:45.769Z,100733.28
2023-04-07T10:43:33.714Z,100727.88
2023-04-07T10:46:03.459Z,100735.41
2023-04-07T10:48:35.866Z,100741.16
2023-04-07T10:51:16.186Z,100737.81
2023-04-07T10:54:22.834Z,100739.73
2023-04-07T10:57:13.919Z,100748.79
2023-04-07T10:59:58.724Z,100753.45
2023-04-07T11:02:35.280Z,100747.00
2023-04-07T11:05:06.949Z,100748.27
2023-04-07T11:07:48.375Z,100742.00
2023-04-07T11:10:19.825Z,100738.70
2023-04-07T11:13:06.475Z,100742.39
2023-04-07T11:15:40.343Z,100742.93
2023-04-07T11:18:19.303Z,100747.30
2023-04-07T11:20:52.060Z,100751.30
2023-04-07T11:23:25.816Z,100751.67
2023-04-07T11:26:04.240Z,100764.76
2023-04-07T11:28:33.839Z,100753.23
2023-04-07T11:31:08.274Z,100749.92
2023-04-07T11:33:39.815Z,100750.81
2023-04-07T11:36:09.234Z,100737.54
2023-04-07T11:38:40.010Z,100735.81
2023-04-07T11:41:14.006Z,100738.43
2023-04-07T11:43:43.281Z,100734.59
2023-04-07T11:46:16.044Z,100741.93
2023-04-07T11:48:48.346Z,100739.84
2023-04-07T11:51:18.869Z,100746.81
2023-04-07T11:53:54.295Z,100743.66
2023-04-07T11:56:24.496Z,100738.42
2023-04-07T11:58:54.925Z,100741.39
2023-04-07T12:01:38.871Z,100741.23
2023-04-07T12:04:12.776Z,100745.42
2023-04-07T12:06:43.908Z,100753.98
2023-04-07T12:09:31.591Z,100752.05
2023-04-07T12:12:02.717Z,100751.88
2023-04-07T12:14:32.401Z,100750.83
2023-04-07T12:17:03.219Z,100754.15
2023-04-07T12:19:34.211Z,100762.36
2023-04-07T12:22:03.726Z,100756.41
2023-04-07T12:24:33.301Z,100755.20
2023-04-07T12:27:02.632Z,100751.53
2023-04-07T12:29:32.372Z,100767.10
2023-04-07T12:32:02.374Z,100763.24
2023-04-07T12:34:32.825Z,100756.77
2023-04-07T12:37:02.240Z,100762.00
2023-04-07T12:39:33.004Z,100761.14
2023-04-07T12:42:03.487Z,100763.23
2023-04-07T12:44:32.728Z,100771.27
2023-04-07T12:47:03.224Z,100773.70
2023-04-07T12:49:33.065Z,100771.40
2023-04-07T12:52:06.230Z,100770.00
2023-04-07T12:54:35.641Z,100770.00
2023-04-07T12:57:05.101Z,100773.30
2023-04-07T12:59:34.222Z,100773.12
2023-04-07T13:02:04.228Z,100776.77
2023-04-07T13:04:34.605Z,100780.60
2023-04-07T13:07:06.461Z,100784.95
2023-04-07T13:09:35.928Z,100786.34
2023-04-07T13:12:05.289Z,100781.64
2023-04-07T13:14:34.598Z,100779.92
2023-04-07T13:17:05.520Z,100784.31
2023-04-07T13:19:37.408Z,100787.29
2023-04-07T13:22:06.883Z,100790.08
2023-04-07T13:24:36.714Z,100794.63
2023-04-07T13:27:06.076Z,100792.91
2023-04-07T13:29:35.313Z,100796.23
2023-04-07T13:32:08.615Z,100801.29
2023-04-07T13:34:38.109Z,100797.63
2023-04-07T13:37:07.257Z,100802.87
2023-04-07T13:39:36.602Z,100805.67
2023-04-07T13:42:06.832Z,100806.19
2023-04-07T13:44:36.977Z,100809.50
2023-04-07T13:47:06.970Z,100809.50
2023-04-07T13:49:36.407Z,100814.23
2023-04-07T13:52:05.908Z,100818.05
2023-04-07T13:54:36.083Z,100818.20
2023-04-07T13:57:06.563Z,100830.94
2023-04-07T13:59:36.565Z,100821.33
2023-04-07T14:02:07.773Z,100831.09
2023-04-07T14:04:37.686Z,100843.10
2023-04-07T14:07:06.930Z,100841.66
2023-04-07T14:09:36.122Z,100844.61
2023-04-07T14:12:08.396Z,100854.30
2023-04-07T14:14:38.202Z,100860.20
2023-04-07T14:17:07.919Z,100860.14
2023-04-07T14:19:37.269Z,100859.58
2023-04-07T14:22:07.532Z,100858.67
2023-04-07T14:24:38.064Z,100861.96
2023-04-07T14:27:07.588Z,100861.24
2023-04-07T14:29:37.563Z,100866.11
2023-04-07T14:32:07.804Z,100859.14
2023-04-07T14:34:40.632Z,100862.10
2023-04-07T14:37:09.892Z,100869.77
2023-04-07T14:39:39.474Z,100872.70
2023-04-07T14:42:08.795Z,100868.84
2023-04-07T14:44:40.062Z,100881.89
2023-04-07T14:47:09.279Z,100882.20
2023-04-07T14:49:38.964Z,100882.35
2023-04-07T14:52:09.116Z,100883.06
2023-04-07T14:54:39.804Z,100885.66
2023-04-07T14:57:09.161Z,100890.18
2023-04-07T14:59:39.484Z,100897.77
2023-04-07T15:02:10.200Z,100891.08
2023-04-07T15:04:40.544Z,100890.35
2023-04-07T15:07:10.753Z,100889.42
2023-04-07T15:09:41.161Z,100889.67
2023-04-07T15:12:10.898Z,100890.89
2023-04-07T15:14:41.898Z,100889.59
2023-04-07T15:17:11.506Z,100885.46
2023-04-07T15:19:40.512Z,100889.53
2023-04-07T15:22:11.431Z,100890.27
2023-04-07T15:24:41.273Z,100898.69
2023-04-07T15:27:11.091Z,100900.61
2023-04-07T15:29:41.938Z,100905.30
2023-04-07T15:32:11.206Z,100905.95
2023-04-07T15:34:41.139Z,100911.86
2023-04-07T15:37:11.528Z,100917.94
2023-04-07T15:39:41.122Z,100925.18
2023-04-07T15:42:12.384Z,100922.69
2023-04-07T15:44:41.940Z,100924.33
2023-04-07T15:47:11.480Z,100928.09
2023-04-07T15:49:41.722Z,100927.01
2023-04-07T15:52:14.272Z,100924.55
2023-04-07T15:54:43.333Z,100929.59
2023-04-07T15:57:14.933Z,100928.19
2023-04-07T15:59:44.724Z,100926.25
2023-04-07T16:02:14.630Z,100932.29
2023-04-07T16:04:46.787Z,100929.80
2023-04-07T16:07:16.581Z,100932.40
2023-04-07T16:09:45.821Z,100933.43
2023-04-07T16:12:16.047Z,100932.21
2023-04-07T16:14:46.100Z,100939.52
2023-04-07T16:17:15.737Z,100938.32
2023-04-07T16:19:45.422Z,100942.49
2023-04-07T16:22:36.441Z,100946.33
2023-04-07T16:25:07.631Z,100947.40
2023-04-07T16:27:41.534Z,100952.98
2023-04-07T16:30:15.048Z,100957.13
2023-04-07T16:32:48.147Z,100960.27
2023-04-07T16:35:17.899Z,100962.56
2023-04-07T16:37:51.409Z,100963.13
2023-04-07T16:40:22.847Z,100966.13
2023-04-07T16:42:52.441Z,100972.08
2023-04-07T16:45:22.884Z,100970.33
2023-04-07T16:47:52.265Z,100971.73
2023-04-07T16:50:21.989Z,100973.28
2023-04-07T16:52:52.734Z,100977.64
2023-04-07T16:55:25.618Z,100981.35
2023-04-07T16:57:56.392Z,100983.80
2023-04-07T17:00:27.344Z,100982.40
2023-04-07T17:02:56.640Z,100984.29
2023-04-07T17:05:26.443Z,100990.88
2023-04-07T17:07:57.286Z,100995.02
2023-04-07T17:10:30.485Z,100994.65
2023-04-07T17:12:59.935Z,101003.88
2023-04-07T17:15:29.520Z,101004.56
2023-04-07T17:18:06.580Z,101006.13
2023-04-07T17:20:39.038Z,101011.89
2023-04-07T17:23:09.961Z,101015.02
2023-04-07T17:25:40.037Z,101022.86
2023-04-07T17:28:11.492Z,101021.80
2023-04-07T17:31:13.623Z,101027.14
2023-04-07T17:34:10.984Z,101028.33
2023-04-07T17:36:50.702Z,101029.54
2023-04-07T17:39:23.130Z,101034.92
2023-04-07T17:41:52.470Z,101032.80
2023-04-07T17:44:22.371Z,101038.35
2023-04-07T17:46:52.036Z,101039.05
2023-04-07T17:49:22.186Z,101039.75
2023-04-07T17:51:51.234Z,101046.53
2023-04-07T17:54:19.797Z,101048.96
2023-04-07T17:56:49.400Z,101048.23
2023-04-07T17:59:18.887Z,101048.73
2023-04-07T18:01:48.571Z,101052.39
2023-04-07T18:04:18.362Z,101053.42
2023-04-07T18:06:48.484Z,101060.19
2023-04-07T18:09:18.989Z,101059.98
2023-04-07T18:11:48.892Z,101062.66
2023-04-07T18:14:18.387Z,101066.66
2023-04-07T18:16:49.325Z,101064.59
2023-04-07T18:19:20.238Z,101070.39
2023-04-07T18:21:53.457Z,101073.39
2023-04-07T18:24:23.990Z,101075.89
2023-04-07T18:26:54.867Z,101078.16
2023-04-07T18:29:25.053Z,101082.14
2023-04-07T18:31:54.427Z,101083.86
2023-04-07T18:34:25.492Z,101085.48
2023-04-07T18:36:55.926Z,101088.80
2023-04-07T18:39:27.786Z,101091.19
2023-04-07T18:41:57.594Z,101096.41
2023-04-07T18:44:27.830Z,101099.23
2023-04-07T18:46:59.071Z,101101.33
2023-04-07T18:49:32.578Z,101098.39
2023-04-07T18:52:02.405Z,101099.98
2023-04-07T18:54:32.479Z,101098.61
2023-04-07T18:57:01.989Z,101104.10
2023-04-07T18:59:31.745Z,101108.30
2023-04-07T19:02:01.701Z,101106.00
2023-04-07T19:04:31.374Z,101105.83
2023-04-07T19:07:07.077Z,101110.06
2023-04-07T19:09:37.332Z,101111.84
2023-04-07T19:12:09.066Z,101112.55
2023-04-07T19:14:38.293Z,101115.15
2023-04-07T19:17:07.757Z,101119.29
2023-04-07T19:19:37.054Z,101117.14
2023-04-07T19:22:06.281Z,101120.59
2023-04-07T19:24:36.229Z,101121.94
2023-04-07T19:27:05.991Z,101126.11
2023-04-07T19:29:35.743Z,101128.33
2023-04-07T19:32:05.836Z,101126.05
2023-04-07T19:34:35.821Z,101124.54
2023-04-07T19:37:05.217Z,101125.48
2023-04-07T19:39:34.875Z,101125.54
2023-04-07T19:42:04.462Z,101125.89
2023-04-07T19:44:34.673Z,101128.64
2023-04-07T19:47:05.848Z,101131.36
2023-04-07T19:49:36.029Z,101135.52
2023-04-07T19:52:05.559Z,101133.95
2023-04-07T19:54:35.144Z,101135.52
2023-04-07T19:57:04.540Z,101139.34
2023-04-07T19:59:34.298Z,101140.38
2023-04-07T20:02:04.840Z,101140.73
2023-04-07T20:04:34.235Z,101138.64
2023-04-07T20:07:04.511Z,101139.67
2023-04-07T20:09:35.369Z,101141.94
2023-04-07T20:12:05.269Z,101146.98
2023-04-07T20:14:34.677Z,101143.30
2023-04-07T20:17:04.290Z,101141.89
2023-04-07T20:19:33.590Z,101136.29
2023-04-07T20:22:06.803Z,101136.13
2023-04-07T20:24:37.108Z,101135.79
2023-04-07T20:27:08.903Z,101139.59
2023-04-07T20:29:38.785Z,101145.15
2023-04-07T20:32:09.693Z,101139.02
2023-04-07T20:34:39.394Z,101146.10
2023-04-07T20:37:09.205Z,101151.09
2023-04-07T20:39:39.213Z,101153.64
2023-04-07T20:42:08.830Z,101153.22
2023-04-07T20:44:38.301Z,101154.73
2023-04-07T20:47:11.293Z,101150.34
2023-04-07T20:49:42.176Z,101151.13
2023-04-07T20:52:11.969Z,101150.38
2023-04-07T20:54:44.306Z,101152.65
2023-04-07T20:57:13.797Z,101149.55
2023-04-07T20:59:43.356Z,101152.63
2023-04-07T21:02:13.371Z,101152.92
2023-04-07T21:04:44.029Z,101152.56
2023-04-07T21:07:13.200Z,101153.26
2023-04-07T21:09:43.726Z,101151.00
2023-04-07T21:12:13.685Z,101153.53
2023-04-07T21:14:43.292Z,101145.11
2023-04-07T21:17:12.541Z,101144.05
2023-04-07T21:19:42.259Z,101143.36
2023-04-07T21:22:15.015Z,101141.45
2023-04-07T21:24:48.302Z,101141.20
2023-04-07T21:27:19.714Z,101145.02
2023-04-07T21:29:49.305Z,101142.86
2023-04-07T21:32:18.982Z,101143.70
2023-04-07T21:34:54.339Z,101142.76
2023-04-07T21:37:28.549Z,101142.55
2023-04-07T21:39:57.912Z,101150.60
2023-04-07T21:42:31.265Z,101148.19
2023-04-07T21:45:00.892Z,101148.23
2023-04-07T21:47:30.436Z,101148.94
2023-04-07T21:50:02.540Z,101149.80
2023-04-07T21:52:32.272Z,101146.46
2023-04-07T21:55:02.100Z,101144.31
2023-04-07T21:57:33.646Z,101148.40
2023-04-07T22:00:05.710Z,101147.66
2023-04-07T22:02:35.852Z,101147.68
2023-04-07T22:05:06.735Z,101147.00
2023-04-07T22:07:36.638Z,101146.45
2023-04-07T22:10:11.065Z,101147.14
2023-04-07T22:12:41.284Z,101148.41
2023-04-07T22:15:14.278Z,101148.65
2023-04-07T22:17:44.547Z,101157.58
2023-04-07T22:20:15.007Z,101158.89
2023-04-07T22:22:45.447Z,101161.77
2023-04-07T22:25:18.710Z,101161.60
2023-04-07T22:27:50.133Z,101162.35
2023-04-07T22:30:20.427Z,101166.88
2023-04-07T22:32:50.067Z,101168.63
2023-04-07T22:35:19.809Z,101170.94
2023-04-07T22:37:53.005Z,101169.39
2023-04-07T22:40:27.530Z,101170.73
2023-04-07T22:42:57.971Z,101168.67
2023-04-07T22:45:29.489Z,101169.69
2023-04-07T22:47:59.416Z,101171.65
2023-04-07T22:50:29.471Z,101171.17
2023-04-07T22:52:59.622Z,101177.75
2023-04-07T22:55:29.903Z,101178.19
2023-04-07T22:58:00.929Z,101174.11
2023-04-07T23:00:31.167Z,101176.53
2023-04-07T23:03:01.290Z,101180.52
2023-04-07T23:05:31.191Z,101176.64
2023-04-07T23:08:01.866Z,101176.78
2023-04-07T23:10:33.370Z,101178.14
2023-04-07T23:13:02.719Z,101181.21
2023-04-07T23:15:33.644Z,101180.33
2023-04-07T23:18:03.316Z,101180.63
2023-04-07T23:20:32.627Z,101178.05
2023-04-07T23:23:01.898Z,101179.81
2023-04-07T23:25:32.193Z,101178.61
2023-04-07T23:28:02.270Z,101176.70
2023-04-07T23:30:32.313Z,101176.10
2023-04-07T23:33:02.369Z,101176.04
2023-04-07T23:35:32.543Z,101172.90
2023-04-07T23:38:03.065Z,101175.89
2023-04-07T23:40:33.148Z,101175.23
2023-04-07T23:43:03.272Z,101174.38
2023-04-07T23:45:33.079Z,101172.17
2023-04-07T23:48:03.622Z,101176.88
2023-04-07T23:50:33.533Z,101179.19
2023-04-07T23:53:04.053Z,101180.42
2023-04-07T23:55:33.903Z,101180.80
2023-04-07T23:58:04.094Z,101181.94
